Latest Weather Observations for Tewantin

IDQ60901

Issued at 9:21 am EST Sunday 26 April 2015 (issued every 10 minutes, with the page automatically refreshed every 10 minutes)

About weather observations | Map of Brisbane area stations | Latest observations for Brisbane area | Other Formats
Station Details ID: 040908 Name: TEWANTIN RSL PARK Lat: -26.39 Lon: 153.04 Height: 6.4 m
Data from the previous 72 hours. | See also: Recent months at Tewantin
Date/Time
EST
Tmp

°C
App
Tmp
°C
Dew
Point
°C
Rel
Hum
%
Delta-T

°C
Wind Press
QNH
hPa
Press
MSL
hPa
Rain
since
9 am
mm
Dir
 
Spd
km/h
Gust
km/h
Spd
kts
Gust
kts
26/09:00am 20.7 17.0 4.3 34 7.9 WSW 13 30 7 16 1012.7 1012.7 0.0
26/08:30am 20.4 16.8 4.8 36 7.6 WSW 13 24 7 13 1012.8 1012.8 0.0
26/08:00am 20.4 17.9 4.8 36 7.6 W 7 17 4 9 1012.7 1012.7 0.0
26/07:30am 19.7 18.3 5.7 40 6.9 NW 2 9 1 5 1012.5 1012.5 0.0
26/07:00am 19.0 17.2 3.6 36 7.3 NNW 2 7 1 4 1012.1 1012.1 0.0
26/06:30am 18.3 15.9 4.1 39 6.7 SSW 6 13 3 7 1011.7 1011.7 0.0
26/06:00am 18.1 16.0 3.9 39 6.7 S 4 9 2 5 1011.3 1011.3 0.0
26/05:30am 18.1 16.2 4.7 41 6.4 WNW 4 7 2 4 1010.9 1010.9 0.0
26/05:00am 19.1 16.8 5.9 42 6.5 WNW 7 11 4 6 1010.5 1010.5 0.0
26/04:30am 19.2 17.2 7.0 45 6.2 W 7 17 4 9 1010.2 1010.2 0.0
26/04:00am 18.1 17.3 9.5 57 4.5 NW 4 7 2 4 1009.8 1009.8 0.0
26/03:30am 18.3 18.4 11.4 64 3.8 NNW 2 6 1 3 1009.7 1009.7 0.0
26/03:00am 18.2 18.5 12.2 68 3.3 NNW 2 7 1 4 1009.4 1009.4 0.0
26/02:30am 18.8 18.8 14.1 74 2.7 NNW 7 11 4 6 1009.5 1009.5 0.0
26/02:00am 18.6 18.6 14.3 76 2.5 NW 7 9 4 5 1009.4 1009.4 0.0
26/01:30am 18.9 19.8 14.0 73 2.8 WNW 2 7 1 4 1009.5 1009.5 0.0
26/01:00am 19.8 19.9 14.4 71 3.1 W 7 17 4 9 1009.5 1009.5 0.0
26/12:30am 18.3 19.5 15.9 86 1.4 NW 4 7 2 4 1009.5 1009.5 0.0
26/12:00am 18.8 19.7 16.6 87 1.3 NW 7 9 4 5 1009.5 1009.5 0.0
 
Date/Time
EST
Tmp

°C
App
Tmp
°C
Dew
Point
°C
Rel
Hum
%
Delta-T

°C
Wind Press
QNH
hPa
Press
MSL
hPa
Rain
since
9 am
mm
Dir
 
Spd
km/h
Gust
km/h
Spd
kts
Gust
kts
25/11:30pm 19.3 20.1 16.3 83 1.8 W 7 11 4 6 1009.7 1009.7 0.0
25/11:00pm 19.9 20.5 16.7 82 1.9 NNW 9 11 5 6 1009.8 1009.8 0.0
25/10:30pm 19.9 20.8 16.5 81 2.0 NNW 7 11 4 6 1010.2 1010.2 0.0
25/10:00pm 20.4 21.2 16.4 78 2.4 NW 7 9 4 5 1010.4 1010.4 0.0
25/09:30pm 20.6 21.8 16.8 79 2.3 NNW 6 9 3 5 1010.5 1010.5 0.0
25/09:00pm 21.2 22.1 16.2 73 3.0 NW 6 7 3 4 1010.6 1010.6 0.0
25/08:30pm 21.8 22.5 16.1 70 3.4 NW 7 9 4 5 1010.5 1010.5 0.0
25/08:00pm 21.6 22.1 16.6 73 3.0 NW 9 11 5 6 1010.2 1010.2 0.0
25/07:30pm 21.6 22.2 16.8 74 2.9 NW 9 11 5 6 1009.9 1009.9 0.0
25/07:00pm 22.0 23.0 16.9 73 3.1 NW 7 9 4 5 1009.5 1009.5 0.0
25/06:30pm 22.9 23.9 16.9 69 3.7 NNW 7 9 4 5 1009.1 1009.1 0.0
25/06:00pm 23.5 24.9 17.3 68 3.8 NNE 6 9 3 5 1008.7 1008.7 0.0
25/05:30pm 23.9 25.0 17.9 69 3.8 NNE 9 11 5 6 1008.4 1008.4 0.0
25/05:00pm 24.5 25.3 17.2 63 4.5 NE 9 15 5 8 1008.2 1008.2 0.0
25/04:30pm 25.3 25.1 16.7 59 5.3 NE 13 20 7 11 1008.0 1008.0 0.0
25/04:00pm 25.5 24.3 16.1 56 5.8 NNE 17 24 9 13 1007.9 1007.9 0.0
25/03:30pm 25.7 25.3 16.3 56 5.8 NE 13 20 7 11 1007.9 1007.9 0.0
25/03:00pm 26.6 26.1 15.9 51 6.6 NE 13 19 7 10 1007.9 1007.9 0.0
25/02:30pm 26.8 26.4 15.2 49 7.0 NE 11 17 6 9 1007.9 1007.9 0.0
25/02:00pm 27.1 26.3 15.1 47 7.3 NNE 13 17 7 9 1007.9 1007.9 0.0
25/01:30pm 27.7 27.9 15.7 48 7.4 NE 9 15 5 8 1008.1 1008.1 0.0
25/01:00pm 28.7 28.2 12.2 36 9.6 NW 6 13 3 7 1008.4 1008.4 0.0
25/12:30pm 26.8 26.7 14.9 48 7.2 SSE 9 15 5 8 1008.9 1008.9 0.0
25/12:00pm 28.3 28.0 13.4 40 8.8 N 7 11 4 6 1009.3 1009.3 0.0
25/11:30am 27.9 28.1 14.2 43 8.2 NE 6 9 3 5 1009.8 1009.8 0.0
25/11:00am 27.2 28.0 14.9 47 7.4 NE 4 7 2 4 1010.4 1010.4 0.0
25/10:30am 26.4 26.5 13.9 46 7.4 NNW 6 9 3 5 1010.7 1010.7 0.0
25/10:00am 25.4 26.3 16.0 56 5.7 N 6 9 3 5 1011.0 1011.0 0.0
25/09:30am 23.6 24.2 15.9 62 4.7 N 7 9 4 5 1011.1 1011.1 0.0
25/09:00am 22.3 23.0 16.1 68 3.7 NNW 7 13 4 7 1011.2 1011.2 0.0
25/08:30am 21.5 22.4 16.5 73 3.0 NNW 7 13 4 7 1011.3 1011.3 0.0
25/08:00am 19.4 19.6 15.7 79 2.2 N 9 11 5 6 1011.1 1011.1 0.0
25/07:30am 18.4 18.9 15.5 83 1.7 NW 7 9 4 5 1011.1 1011.1 0.0
25/07:00am 17.0 17.6 15.9 93 0.6 NW 7 11 4 6 1010.8 1010.8 0.0
25/06:30am 15.7 16.1 15.4 98 0.2 NW 7 9 4 5 1010.6 1010.6 0.0
25/06:00am 15.9 16.5 15.4 97 0.3 WNW 6 9 3 5 1010.3 1010.3 0.0
25/05:30am 16.0 17.0 15.4 96 0.3 NNW 4 7 2 4 1010.1 1010.1 0.0
25/05:00am 16.3 17.8 15.8 97 0.3 NW 2 7 1 4 1009.8 1009.8 0.0
25/04:30am 16.3 17.9 16.0 98 0.2 WNW 2 6 1 3 1009.7 1009.7 0.0
25/04:00am 16.1 18.1 15.9 99 0.1 CALM 0 0 0 0 1009.7 1009.7 0.0
25/03:30am 16.0 17.8 15.5 97 0.3 CALM 0 0 0 0 1009.9 1009.9 0.0
25/03:00am 16.1 17.9 15.5 96 0.3 CALM 0 0 0 0 1009.7 1009.7 0.0
25/02:30am 16.5 18.5 16.0 97 0.3 CALM 0 0 0 0 1009.7 1009.7 0.0
25/02:00am 17.0 19.2 16.5 97 0.3 CALM 0 0 0 0 1010.0 1010.0 0.0
25/01:30am 16.9 18.8 15.8 93 0.6 CALM 0 0 0 0 1010.1 1010.1 0.0
25/01:00am 17.4 18.4 16.3 93 0.7 N 6 6 3 3 1010.1 1010.1 0.0
25/12:30am 17.4 19.2 15.4 88 1.2 CALM 0 0 0 0 1010.3 1010.3 0.0
25/12:00am 17.8 19.7 15.8 88 1.2 CALM 0 0 0 0 1010.5 1010.5 0.0
 
Date/Time
EST
Tmp

°C
App
Tmp
°C
Dew
Point
°C
Rel
Hum
%
Delta-T

°C
Wind Press
QNH
hPa
Press
MSL
hPa
Rain
since
9 am
mm
Dir
 
Spd
km/h
Gust
km/h
Spd
kts
Gust
kts
24/11:30pm 18.2 19.1 16.0 87 1.3 NNW 6 6 3 3 1010.4 1010.4 0.0
24/11:00pm 18.6 19.7 15.7 83 1.7 NNW 4 6 2 3 1010.6 1010.6 0.0
24/10:30pm 19.2 19.8 15.3 78 2.3 NW 6 7 3 4 1010.4 1010.4 0.0
24/10:00pm 19.2 19.2 15.3 78 2.3 WNW 9 9 5 5 1010.6 1010.6 0.0
24/09:30pm 19.3 19.7 15.4 78 2.3 NW 7 11 4 6 1010.6 1010.6 0.0
24/09:00pm 19.4 19.5 15.5 78 2.3 NW 9 11 5 6 1010.4 1010.4 0.0
24/08:30pm 19.5 19.7 15.8 79 2.2 NW 9 11 5 6 1010.4 1010.4 0.0
24/08:00pm 19.5 21.0 15.8 79 2.2 WNW 2 9 1 5 1010.3 1010.3 0.0
24/07:30pm 20.2 22.0 15.6 75 2.7 CALM 0 0 0 0 1010.0 1010.0 0.0
24/07:00pm 20.9 22.9 16.1 74 2.9 CALM 0 0 0 0 1009.6 1009.6 0.0
24/06:30pm 21.6 22.5 15.2 67 3.8 NNW 4 7 2 4 1009.4 1009.4 0.0
24/06:00pm 22.2 24.0 15.5 66 4.0 CALM 0 0 0 0 1008.8 1008.8 0.0
24/05:30pm 22.4 23.1 15.5 65 4.1 ENE 6 9 3 5 1008.6 1008.6 0.0
24/05:00pm 23.2 23.4 15.8 63 4.5 ENE 9 11 5 6 1008.2 1008.2 0.0
24/04:30pm 23.8 24.0 15.8 61 4.8 NE 9 17 5 9 1008.2 1008.2 0.0
24/04:00pm 24.0 23.9 16.0 61 4.9 NE 11 19 6 10 1008.0 1008.0 0.0
24/03:30pm 24.5 24.5 16.2 60 5.1 NE 11 17 6 9 1007.8 1007.8 0.0
24/03:00pm 24.5 24.2 15.4 57 5.5 NNE 11 19 6 10 1008.0 1008.0 0.0
24/02:30pm 25.2 24.8 15.2 54 6.0 NNE 11 17 6 9 1007.7 1007.7 0.0
24/02:00pm 25.6 26.0 15.3 53 6.2 E 7 11 4 6 1007.8 1007.8 0.0
24/01:30pm 25.7 25.8 15.4 53 6.2 NNE 9 15 5 8 1008.1 1008.1 0.0
24/01:00pm 27.4 27.9 14.1 44 8.0 WNW 4 11 2 6 1008.4 1008.4 0.0
24/12:30pm 26.8 26.5 13.2 43 8.0 WSW 7 13 4 7 1008.9 1008.9 0.0
24/12:00pm 26.3 25.8 12.7 43 7.9 NW 7 13 4 7 1009.2 1009.2 0.0
24/11:30am 25.8 26.5 14.6 50 6.7 S 4 7 2 4 1009.7 1009.7 0.0
24/11:00am 25.7 25.8 14.5 50 6.7 WSW 7 13 4 7 1010.4 1010.4 0.0
24/10:30am 24.7 26.1 16.4 60 5.1 NNE 4 9 2 5 1010.9 1010.9 0.0
24/10:00am 22.9 23.3 15.2 62 4.6 NW 7 11 4 6 1011.3 1011.3 0.0
24/09:30am 22.5 23.1 15.4 64 4.2 NNW 6 11 3 6 1011.2 1011.2 0.0
24/09:00am 21.5 22.1 15.3 68 3.7 NW 6 9 3 5 1011.2 1011.2 0.0
24/08:30am 19.8 20.1 15.0 74 2.8 N 7 11 4 6 1011.0 1011.0 0.0
24/08:00am 19.1 19.6 15.0 77 2.4 NNW 6 7 3 4 1011.0 1011.0 0.0
24/07:30am 18.0 18.6 14.3 79 2.1 WNW 4 9 2 5 1010.9 1010.9 0.0
24/07:00am 16.7 18.2 14.7 88 1.2 CALM 0 0 0 0 1010.8 1010.8 0.0
24/06:30am 16.1 17.2 14.5 90 0.9 W 2 6 1 3 1010.7 1010.7 0.0
24/06:00am 15.8 17.3 14.7 93 0.6 CALM 0 0 0 0 1010.3 1010.3 0.0
24/05:30am 15.8 17.2 14.3 91 0.9 CALM 0 0 0 0 1010.0 1010.0 0.0
24/05:00am 15.8 16.9 14.7 93 0.6 N 2 7 1 4 1010.0 1010.0 0.0
24/04:30am 16.2 17.1 13.9 86 1.3 WNW 2 7 1 4 1010.0 1010.0 0.0
24/04:00am 17.0 17.1 14.5 85 1.4 W 7 11 4 6 1009.9 1009.9 0.0
24/03:30am 16.1 16.6 15.0 93 0.6 WSW 6 9 3 5 1010.0 1010.0 0.0
24/03:00am 15.0 16.3 14.0 94 0.6 CALM 0 0 0 0 1010.2 1010.2 0.0
24/02:30am 15.4 16.8 14.3 93 0.6 CALM 0 0 0 0 1010.4 1010.4 0.0
24/02:00am 15.5 16.9 14.5 94 0.6 CALM 0 0 0 0 1010.4 1010.4 0.0
24/01:30am 15.8 17.2 14.5 92 0.7 CALM 0 0 0 0 1010.6 1010.6 0.0
24/01:00am 16.2 17.0 14.9 92 0.7 NW 4 7 2 4 1011.0 1011.0 0.0
24/12:30am 16.0 17.4 14.4 90 0.9 CALM 0 0 0 0 1011.0 1011.0 0.0
24/12:00am 16.1 17.7 14.8 92 0.7 CALM 0 0 0 0 1011.0 1011.0 0.0
 
Date/Time
EST
Tmp

°C
App
Tmp
°C
Dew
Point
°C
Rel
Hum
%
Delta-T

°C
Wind Press
QNH
hPa
Press
MSL
hPa
Rain
since
9 am
mm
Dir
 
Spd
km/h
Gust
km/h
Spd
kts
Gust
kts
23/11:30pm 16.2 17.9 15.1 93 0.6 CALM 0 0 0 0 1011.0 1011.0 0.0
23/11:00pm 16.1 17.6 14.6 91 0.9 CALM 0 0 0 0 1011.4 1011.4 0.0
23/10:30pm 16.4 18.1 15.3 93 0.6 CALM 0 0 0 0 1011.4 1011.4 0.0
23/10:00pm 16.0 17.4 14.5 91 0.9 CALM 0 0 0 0 1011.4 1011.4 0.0
23/09:30pm 15.9 17.3 14.3 90 0.9 CALM 0 0 0 0 1011.5 1011.5 0.0
23/09:00pm 16.2 17.5 14.2 88 1.1 CALM 0 0 0 0 1011.5 1011.5 0.0
23/08:30pm 17.1 18.6 14.7 86 1.4 CALM 0 0 0 0 1011.5 1011.5 0.0
23/08:00pm 17.7 19.6 15.7 88 1.2 CALM 0 0 0 0 1011.2 1011.2 0.0
23/07:30pm 18.1 19.7 15.0 82 1.8 CALM 0 0 0 0 1011.2 1011.2 0.0
23/07:00pm 18.7 20.3 14.8 78 2.3 CALM 0 0 0 0 1010.9 1010.9 0.0
23/06:30pm 19.5 21.0 14.7 74 2.8 CALM 0 0 0 0 1010.5 1010.5 0.0
23/06:00pm 19.9 21.1 13.8 68 3.5 CALM 0 0 0 0 1010.3 1010.3 0.0
23/05:30pm 20.4 20.6 14.1 67 3.6 E 6 7 3 4 1009.9 1009.9 0.0
23/05:00pm 21.3 20.9 14.2 64 4.1 ESE 9 13 5 7 1009.7 1009.7 0.0
23/04:30pm 21.9 21.4 13.8 60 4.7 ESE 9 13 5 7 1009.5 1009.5 0.0
23/04:00pm 22.1 21.6 13.7 59 4.9 ESE 9 13 5 7 1009.4 1009.4 0.0
23/03:30pm 22.5 21.6 12.7 54 5.6 E 9 15 5 8 1009.2 1009.2 0.0
23/03:00pm 23.1 22.3 14.1 57 5.3 NE 11 15 6 8 1009.4 1009.4 0.0
23/02:30pm 23.0 21.9 13.2 54 5.7 NE 11 19 6 10 1009.5 1009.5 0.0
23/02:00pm 23.0 21.9 14.3 58 5.1 NNE 13 17 7 9 1009.7 1009.7 0.0
23/01:30pm 23.1 21.9 12.7 52 6.0 NE 11 17 6 9 1010.0 1010.0 0.0
23/01:00pm 23.9 23.3 13.4 51 6.1 NE 9 15 5 8 1010.4 1010.4 0.0
23/12:30pm 23.6 23.6 11.0 45 7.0 NE 2 11 1 6 1010.9 1010.9 0.0
23/12:00pm 23.8 23.4 11.2 45 7.1 NE 4 11 2 6 1011.5 1011.5 0.0
23/11:30am 22.5 21.5 10.9 48 6.4 E 7 13 4 7 1012.0 1012.0 0.0
23/11:00am 22.2 21.0 10.4 47 6.5 SSE 7 9 4 5 1012.6 1012.6 0.0
23/10:30am 22.6 22.0 11.7 50 6.1 N 6 9 3 5 1012.9 1012.9 0.0
23/10:00am 22.3 21.6 11.4 50 6.1 SSE 6 9 3 5 1013.1 1013.1 0.0
23/09:30am 21.3 20.4 11.3 53 5.5 S 7 13 4 7 1013.3 1013.3 0.0

Latest Capital City Observations: Canberra | Sydney | Melbourne | Brisbane | Adelaide | Perth | Hobart | Darwin

Other Formats:

Comma delimited format used in spreadsheet applications
http://www.bom.gov.au/fwo/IDQ60901/IDQ60901.94570.axf

JavaScript Object Notation format (JSON) in row-major order
http://www.bom.gov.au/fwo/IDQ60901/IDQ60901.94570.json